sensor_id;sensor_type;location;lat;lon;timestamp;pressure;altitude;pressure_sealevel;temperature;humidity
73516;BME280;61763;51.416;5.442;2022-11-23T00:00:33;99494.94;;;7.49;100.00
73516;BME280;61763;51.416;5.442;2022-11-23T00:02:59;99505.88;;;7.46;100.00
73516;BME280;61763;51.416;5.442;2022-11-23T00:05:26;99492.16;;;7.50;100.00
73516;BME280;61763;51.416;5.442;2022-11-23T00:07:52;99497.81;;;7.46;100.00
73516;BME280;61763;51.416;5.442;2022-11-23T00:10:17;99498.56;;;7.48;100.00
73516;BME280;61763;51.416;5.442;2022-11-23T00:12:43;99503.94;;;7.48;100.00
73516;BME280;61763;51.416;5.442;2022-11-23T00:15:11;99507.34;;;7.51;100.00
73516;BME280;61763;51.416;5.442;2022-11-23T00:17:37;99501.03;;;7.52;100.00
73516;BME280;61763;51.416;5.442;2022-11-23T00:20:03;99510.13;;;7.50;100.00
73516;BME280;61763;51.416;5.442;2022-11-23T00:22:29;99515.28;;;7.53;100.00
73516;BME280;61763;51.416;5.442;2022-11-23T00:24:54;99508.88;;;7.56;100.00
73516;BME280;61763;51.416;5.442;2022-11-23T00:27:20;99506.28;;;7.54;100.00
73516;BME280;61763;51.416;5.442;2022-11-23T00:29:45;99512.34;;;7.58;100.00
73516;BME280;61763;51.416;5.442;2022-11-23T00:32:10;99509.28;;;7.64;100.00
73516;BME280;61763;51.416;5.442;2022-11-23T00:34:35;99513.13;;;7.60;100.00
73516;BME280;61763;51.416;5.442;2022-11-23T00:37:01;99515.81;;;7.60;100.00
73516;BME280;61763;51.416;5.442;2022-11-23T00:39:26;99518.03;;;7.67;100.00
73516;BME280;61763;51.416;5.442;2022-11-23T00:41:52;99522.22;;;7.57;100.00
73516;BME280;61763;51.416;5.442;2022-11-23T00:44:17;99519.34;;;7.60;100.00
73516;BME280;61763;51.416;5.442;2022-11-23T00:46:42;99524.81;;;7.59;100.00
73516;BME280;61763;51.416;5.442;2022-11-23T00:49:07;99527.13;;;7.65;100.00
73516;BME280;61763;51.416;5.442;2022-11-23T00:51:35;99526.56;;;7.60;100.00
73516;BME280;61763;51.416;5.442;2022-11-23T00:54:02;99516.38;;;7.65;100.00
73516;BME280;61763;51.416;5.442;2022-11-23T00:56:30;99517.03;;;7.54;100.00
73516;BME280;61763;51.416;5.442;2022-11-23T00:58:57;99518.31;;;7.63;100.00
73516;BME280;61763;51.416;5.442;2022-11-23T01:01:25;99529.25;;;7.60;100.00
73516;BME280;61763;51.416;5.442;2022-11-23T01:03:54;99530.66;;;7.65;100.00
73516;BME280;61763;51.416;5.442;2022-11-23T01:06:26;99535.75;;;7.56;100.00
73516;BME280;61763;51.416;5.442;2022-11-23T01:08:52;99533.44;;;7.64;100.00
73516;BME280;61763;51.416;5.442;2022-11-23T01:11:20;99532.97;;;7.57;100.00
73516;BME280;61763;51.416;5.442;2022-11-23T01:13:46;99534.66;;;7.58;100.00
73516;BME280;61763;51.416;5.442;2022-11-23T01:16:19;99541.00;;;7.57;100.00
73516;BME280;61763;51.416;5.442;2022-11-23T01:18:45;99535.66;;;7.57;100.00
73516;BME280;61763;51.416;5.442;2022-11-23T01:21:10;99535.66;;;7.57;100.00
73516;BME280;61763;51.416;5.442;2022-11-23T01:23:36;99530.00;;;7.62;100.00
73516;BME280;61763;51.416;5.442;2022-11-23T01:26:09;99537.34;;;7.58;100.00
73516;BME280;61763;51.416;5.442;2022-11-23T01:28:36;99548.09;;;7.58;100.00
73516;BME280;61763;51.416;5.442;2022-11-23T01:31:08;99536.22;;;7.62;100.00
73516;BME280;61763;51.416;5.442;2022-11-23T01:33:35;99545.25;;;7.61;100.00
73516;BME280;61763;51.416;5.442;2022-11-23T01:36:07;99547.75;;;7.64;100.00
73516;BME280;61763;51.416;5.442;2022-11-23T01:38:33;99549.75;;;7.61;100.00
73516;BME280;61763;51.416;5.442;2022-11-23T01:40:58;99550.34;;;7.66;100.00
73516;BME280;61763;51.416;5.442;2022-11-23T01:43:25;99551.56;;;7.60;100.00
73516;BME280;61763;51.416;5.442;2022-11-23T01:45:59;99554.34;;;7.59;100.00
73516;BME280;61763;51.416;5.442;2022-11-23T01:48:34;99555.63;;;7.67;100.00
73516;BME280;61763;51.416;5.442;2022-11-23T01:51:04;99552.66;;;7.72;100.00
73516;BME280;61763;51.416;5.442;2022-11-23T01:53:31;99551.19;;;7.66;100.00
73516;BME280;61763;51.416;5.442;2022-11-23T01:55:59;99553.13;;;7.64;100.00
73516;BME280;61763;51.416;5.442;2022-11-23T01:58:27;99555.19;;;7.59;100.00
73516;BME280;61763;51.416;5.442;2022-11-23T02:00:53;99553.63;;;7.71;100.00
73516;BME280;61763;51.416;5.442;2022-11-23T02:03:19;99554.66;;;7.68;100.00
73516;BME280;61763;51.416;5.442;2022-11-23T02:05:49;99561.09;;;7.66;100.00
73516;BME280;61763;51.416;5.442;2022-11-23T02:08:19;99566.28;;;7.69;100.00
73516;BME280;61763;51.416;5.442;2022-11-23T02:10:44;99566.84;;;7.74;100.00
73516;BME280;61763;51.416;5.442;2022-11-23T02:13:12;99567.56;;;7.78;100.00
73516;BME280;61763;51.416;5.442;2022-11-23T02:15:38;99565.06;;;7.75;100.00
73516;BME280;61763;51.416;5.442;2022-11-23T02:18:09;99572.13;;;7.76;100.00
73516;BME280;61763;51.416;5.442;2022-11-23T02:20:37;99573.03;;;7.76;100.00
73516;BME280;61763;51.416;5.442;2022-11-23T02:28:02;99576.88;;;7.56;100.00
73516;BME280;61763;51.416;5.442;2022-11-23T02:30:29;99583.09;;;7.57;100.00
73516;BME280;61763;51.416;5.442;2022-11-23T02:32:55;99585.53;;;7.61;100.00
73516;BME280;61763;51.416;5.442;2022-11-23T02:35:21;99581.09;;;7.60;100.00
73516;BME280;61763;51.416;5.442;2022-11-23T02:37:46;99582.06;;;7.59;100.00
73516;BME280;61763;51.416;5.442;2022-11-23T02:40:24;99576.00;;;7.56;100.00
73516;BME280;61763;51.416;5.442;2022-11-23T02:42:51;99581.56;;;7.52;100.00
73516;BME280;61763;51.416;5.442;2022-11-23T02:48:02;99584.91;;;7.56;100.00
73516;BME280;61763;51.416;5.442;2022-11-23T02:50:28;99586.84;;;7.54;100.00
73516;BME280;61763;51.416;5.442;2022-11-23T02:52:54;99579.47;;;7.58;100.00
73516;BME280;61763;51.416;5.442;2022-11-23T02:55:19;99589.34;;;7.57;100.00
73516;BME280;61763;51.416;5.442;2022-11-23T02:57:44;99583.00;;;7.58;100.00
73516;BME280;61763;51.416;5.442;2022-11-23T03:00:11;99585.88;;;7.55;100.00
73516;BME280;61763;51.416;5.442;2022-11-23T03:02:36;99584.34;;;7.51;100.00
73516;BME280;61763;51.416;5.442;2022-11-23T03:05:02;99579.38;;;7.59;100.00
73516;BME280;61763;51.416;5.442;2022-11-23T03:07:27;99582.50;;;7.51;100.00
73516;BME280;61763;51.416;5.442;2022-11-23T03:09:53;99583.19;;;7.55;100.00
73516;BME280;61763;51.416;5.442;2022-11-23T03:12:18;99587.69;;;7.54;100.00
73516;BME280;61763;51.416;5.442;2022-11-23T03:14:43;99578.50;;;7.59;100.00
73516;BME280;61763;51.416;5.442;2022-11-23T03:17:09;99580.09;;;7.47;100.00
73516;BME280;61763;51.416;5.442;2022-11-23T03:19:34;99582.31;;;7.54;100.00
73516;BME280;61763;51.416;5.442;2022-11-23T03:21:59;99590.75;;;7.48;100.00
73516;BME280;61763;51.416;5.442;2022-11-23T03:24:25;99591.22;;;7.55;100.00
73516;BME280;61763;51.416;5.442;2022-11-23T03:26:50;99582.41;;;7.53;100.00
73516;BME280;61763;51.416;5.442;2022-11-23T03:29:15;99585.44;;;7.63;100.00
73516;BME280;61763;51.416;5.442;2022-11-23T03:31:41;99584.47;;;7.64;100.00
73516;BME280;61763;51.416;5.442;2022-11-23T03:34:08;99591.47;;;7.66;100.00
73516;BME280;61763;51.416;5.442;2022-11-23T03:36:34;99589.06;;;7.62;100.00
73516;BME280;61763;51.416;5.442;2022-11-23T03:38:59;99588.03;;;7.64;100.00
73516;BME280;61763;51.416;5.442;2022-11-23T03:41:24;99589.75;;;7.65;100.00
73516;BME280;61763;51.416;5.442;2022-11-23T03:43:49;99589.94;;;7.62;100.00
73516;BME280;61763;51.416;5.442;2022-11-23T03:46:15;99584.47;;;7.64;100.00
73516;BME280;61763;51.416;5.442;2022-11-23T03:48:40;99595.56;;;7.58;100.00
73516;BME280;61763;51.416;5.442;2022-11-23T03:51:05;99589.84;;;7.64;100.00
73516;BME280;61763;51.416;5.442;2022-11-23T03:53:31;99592.69;;;7.61;100.00
73516;BME280;61763;51.416;5.442;2022-11-23T03:55:56;99582.66;;;7.64;100.00
73516;BME280;61763;51.416;5.442;2022-11-23T03:58:22;99591.06;;;7.58;100.00
73516;BME280;61763;51.416;5.442;2022-11-23T04:00:48;99589.50;;;7.70;100.00
73516;BME280;61763;51.416;5.442;2022-11-23T04:03:13;99588.72;;;7.52;100.00
73516;BME280;61763;51.416;5.442;2022-11-23T04:05:39;99596.59;;;7.55;100.00
73516;BME280;61763;51.416;5.442;2022-11-23T04:08:04;99593.59;;;7.45;100.00
73516;BME280;61763;51.416;5.442;2022-11-23T04:10:30;99591.94;;;7.43;100.00
73516;BME280;61763;51.416;5.442;2022-11-23T04:12:55;99594.63;;;7.43;100.00
73516;BME280;61763;51.416;5.442;2022-11-23T04:15:20;99596.09;;;7.48;100.00
73516;BME280;61763;51.416;5.442;2022-11-23T04:17:46;99589.94;;;7.46;100.00
73516;BME280;61763;51.416;5.442;2022-11-23T04:20:12;99595.56;;;7.42;100.00
73516;BME280;61763;51.416;5.442;2022-11-23T04:22:37;99593.69;;;7.44;100.00
73516;BME280;61763;51.416;5.442;2022-11-23T04:25:03;99587.88;;;7.51;100.00
73516;BME280;61763;51.416;5.442;2022-11-23T04:27:29;99595.00;;;7.36;100.00
73516;BME280;61763;51.416;5.442;2022-11-23T04:29:55;99593.44;;;7.32;100.00
73516;BME280;61763;51.416;5.442;2022-11-23T04:32:20;99585.63;;;7.44;100.00
73516;BME280;61763;51.416;5.442;2022-11-23T04:34:45;99595.31;;;7.46;100.00
73516;BME280;61763;51.416;5.442;2022-11-23T04:37:11;99590.91;;;7.45;100.00
73516;BME280;61763;51.416;5.442;2022-11-23T04:39:36;99598.25;;;7.42;100.00
73516;BME280;61763;51.416;5.442;2022-11-23T04:42:01;99588.81;;;7.34;100.00
73516;BME280;61763;51.416;5.442;2022-11-23T04:44:27;99591.19;;;7.25;100.00
73516;BME280;61763;51.416;5.442;2022-11-23T04:46:53;99592.91;;;7.26;100.00
73516;BME280;61763;51.416;5.442;2022-11-23T04:49:18;99593.25;;;7.19;100.00
73516;BME280;61763;51.416;5.442;2022-11-23T04:51:43;99595.59;;;7.10;100.00
73516;BME280;61763;51.416;5.442;2022-11-23T04:54:09;99600.16;;;6.92;100.00
73516;BME280;61763;51.416;5.442;2022-11-23T04:56:34;99601.78;;;6.78;100.00
73516;BME280;61763;51.416;5.442;2022-11-23T04:59:00;99597.34;;;6.61;100.00
73516;BME280;61763;51.416;5.442;2022-11-23T05:01:25;99596.19;;;6.49;100.00
73516;BME280;61763;51.416;5.442;2022-11-23T05:03:50;99597.47;;;6.42;100.00
73516;BME280;61763;51.416;5.442;2022-11-23T05:06:16;99599.22;;;6.43;100.00
73516;BME280;61763;51.416;5.442;2022-11-23T05:08:41;99593.13;;;6.40;100.00
73516;BME280;61763;51.416;5.442;2022-11-23T05:11:07;99580.75;;;6.37;100.00
73516;BME280;61763;51.416;5.442;2022-11-23T05:13:32;99592.19;;;6.41;100.00
73516;BME280;61763;51.416;5.442;2022-11-23T05:15:58;99583.81;;;6.47;100.00
73516;BME280;61763;51.416;5.442;2022-11-23T05:18:23;99596.28;;;6.48;100.00
73516;BME280;61763;51.416;5.442;2022-11-23T05:20:48;99597.69;;;6.55;100.00
73516;BME280;61763;51.416;5.442;2022-11-23T05:23:14;99589.22;;;6.63;100.00
73516;BME280;61763;51.416;5.442;2022-11-23T05:25:39;99588.66;;;6.56;100.00
73516;BME280;61763;51.416;5.442;2022-11-23T05:28:05;99584.63;;;6.65;100.00
73516;BME280;61763;51.416;5.442;2022-11-23T05:30:30;99589.09;;;6.82;100.00
73516;BME280;61763;51.416;5.442;2022-11-23T05:33:00;99595.22;;;6.84;100.00
73516;BME280;61763;51.416;5.442;2022-11-23T05:35:26;99591.59;;;6.85;100.00
73516;BME280;61763;51.416;5.442;2022-11-23T05:37:52;99595.13;;;6.86;100.00
73516;BME280;61763;51.416;5.442;2022-11-23T05:40:17;99601.59;;;6.81;100.00
73516;BME280;61763;51.416;5.442;2022-11-23T05:42:43;99594.03;;;6.90;100.00
73516;BME280;61763;51.416;5.442;2022-11-23T05:45:08;99597.63;;;6.89;100.00
73516;BME280;61763;51.416;5.442;2022-11-23T05:47:34;99598.28;;;6.94;100.00
73516;BME280;61763;51.416;5.442;2022-11-23T05:49:59;99594.78;;;6.92;100.00
73516;BME280;61763;51.416;5.442;2022-11-23T05:52:25;99591.69;;;6.99;100.00
73516;BME280;61763;51.416;5.442;2022-11-23T05:54:50;99593.16;;;6.89;100.00
73516;BME280;61763;51.416;5.442;2022-11-23T05:57:16;99601.97;;;6.91;100.00
73516;BME280;61763;51.416;5.442;2022-11-23T05:59:42;99598.28;;;6.94;100.00
73516;BME280;61763;51.416;5.442;2022-11-23T06:02:07;99600.50;;;6.86;100.00
73516;BME280;61763;51.416;5.442;2022-11-23T06:04:33;99599.53;;;6.71;100.00
73516;BME280;61763;51.416;5.442;2022-11-23T06:07:00;99610.88;;;6.76;100.00
73516;BME280;61763;51.416;5.442;2022-11-23T06:09:26;99597.81;;;6.86;100.00
73516;BME280;61763;51.416;5.442;2022-11-23T06:11:52;99601.59;;;6.81;100.00
73516;BME280;61763;51.416;5.442;2022-11-23T06:14:17;99607.22;;;6.77;100.00
73516;BME280;61763;51.416;5.442;2022-11-23T06:16:43;99597.47;;;6.76;100.00
73516;BME280;61763;51.416;5.442;2022-11-23T06:19:08;99608.25;;;6.74;100.00
73516;BME280;61763;51.416;5.442;2022-11-23T06:21:34;99609.06;;;6.76;100.00
73516;BME280;61763;51.416;5.442;2022-11-23T06:23:59;99609.44;;;6.86;100.00
73516;BME280;61763;51.416;5.442;2022-11-23T06:26:24;99602.59;;;6.80;100.00
73516;BME280;61763;51.416;5.442;2022-11-23T06:28:50;99608.19;;;6.76;100.00
73516;BME280;61763;51.416;5.442;2022-11-23T06:31:15;99612.78;;;6.90;100.00
73516;BME280;61763;51.416;5.442;2022-11-23T06:33:41;99606.75;;;6.86;100.00
73516;BME280;61763;51.416;5.442;2022-11-23T06:36:08;99614.84;;;6.84;100.00
73516;BME280;61763;51.416;5.442;2022-11-23T06:38:35;99611.47;;;6.81;100.00
73516;BME280;61763;51.416;5.442;2022-11-23T06:41:01;99614.94;;;6.83;100.00
73516;BME280;61763;51.416;5.442;2022-11-23T06:43:27;99610.16;;;6.72;100.00
73516;BME280;61763;51.416;5.442;2022-11-23T06:45:54;99606.06;;;6.65;100.00
73516;BME280;61763;51.416;5.442;2022-11-23T06:48:20;99615.22;;;6.61;100.00
73516;BME280;61763;51.416;5.442;2022-11-23T06:50:45;99620.91;;;6.55;100.00
73516;BME280;61763;51.416;5.442;2022-11-23T06:53:11;99620.69;;;6.42;100.00
73516;BME280;61763;51.416;5.442;2022-11-23T06:55:37;99625.44;;;6.37;100.00
73516;BME280;61763;51.416;5.442;2022-11-23T06:58:02;99625.06;;;6.27;100.00
73516;BME280;61763;51.416;5.442;2022-11-23T07:00:28;99630.13;;;6.16;100.00
73516;BME280;61763;51.416;5.442;2022-11-23T07:02:54;99630.81;;;6.19;100.00
73516;BME280;61763;51.416;5.442;2022-11-23T07:05:22;99631.28;;;6.10;100.00
73516;BME280;61763;51.416;5.442;2022-11-23T07:07:48;99640.16;;;5.93;100.00
73516;BME280;61763;51.416;5.442;2022-11-23T07:10:13;99634.72;;;5.94;100.00
73516;BME280;61763;51.416;5.442;2022-11-23T07:12:39;99642.13;;;5.89;100.00
73516;BME280;61763;51.416;5.442;2022-11-23T07:15:05;99647.38;;;5.73;100.00
73516;BME280;61763;51.416;5.442;2022-11-23T07:17:31;99646.72;;;5.68;100.00
73516;BME280;61763;51.416;5.442;2022-11-23T07:19:56;99652.81;;;5.72;100.00
73516;BME280;61763;51.416;5.442;2022-11-23T07:22:21;99654.00;;;5.84;100.00
73516;BME280;61763;51.416;5.442;2022-11-23T07:24:47;99657.53;;;5.84;100.00
73516;BME280;61763;51.416;5.442;2022-11-23T07:27:12;99664.22;;;5.75;100.00
73516;BME280;61763;51.416;5.442;2022-11-23T07:29:37;99669.94;;;5.68;100.00
73516;BME280;61763;51.416;5.442;2022-11-23T07:32:04;99666.97;;;5.74;100.00
73516;BME280;61763;51.416;5.442;2022-11-23T07:34:30;99673.44;;;5.70;100.00
73516;BME280;61763;51.416;5.442;2022-11-23T07:36:56;99668.63;;;5.76;100.00
73516;BME280;61763;51.416;5.442;2022-11-23T07:39:21;99677.81;;;5.71;100.00
73516;BME280;61763;51.416;5.442;2022-11-23T07:41:49;99681.59;;;5.67;100.00
73516;BME280;61763;51.416;5.442;2022-11-23T07:44:14;99682.56;;;5.66;100.00
73516;BME280;61763;51.416;5.442;2022-11-23T07:46:40;99686.63;;;5.55;100.00
73516;BME280;61763;51.416;5.442;2022-11-23T07:49:05;99686.63;;;5.55;100.00
73516;BME280;61763;51.416;5.442;2022-11-23T07:51:31;99684.03;;;5.54;100.00
73516;BME280;61763;51.416;5.442;2022-11-23T07:53:58;99691.09;;;5.55;100.00
73516;BME280;61763;51.416;5.442;2022-11-23T07:56:23;99686.31;;;5.61;100.00
73516;BME280;61763;51.416;5.442;2022-11-23T07:58:48;99698.09;;;5.57;100.00
73516;BME280;61763;51.416;5.442;2022-11-23T08:01:18;99704.59;;;5.71;100.00
73516;BME280;61763;51.416;5.442;2022-11-23T08:03:44;99701.91;;;5.71;100.00
73516;BME280;61763;51.416;5.442;2022-11-23T08:06:10;99707.41;;;5.87;100.00
73516;BME280;61763;51.416;5.442;2022-11-23T08:08:36;99709.69;;;5.94;100.00
73516;BME280;61763;51.416;5.442;2022-11-23T08:11:04;99711.50;;;5.94;100.00
73516;BME280;61763;51.416;5.442;2022-11-23T08:13:29;99705.88;;;5.81;100.00
73516;BME280;61763;51.416;5.442;2022-11-23T08:15:56;99701.97;;;5.88;100.00
73516;BME280;61763;51.416;5.442;2022-11-23T08:18:22;99700.69;;;5.78;100.00
73516;BME280;61763;51.416;5.442;2022-11-23T08:20:48;99694.69;;;5.73;100.00
73516;BME280;61763;51.416;5.442;2022-11-23T08:23:13;99703.13;;;5.83;100.00
73516;BME280;61763;51.416;5.442;2022-11-23T08:25:39;99701.88;;;5.90;100.00
73516;BME280;61763;51.416;5.442;2022-11-23T08:28:04;99696.75;;;6.04;100.00
73516;BME280;61763;51.416;5.442;2022-11-23T08:30:31;99703.31;;;6.16;100.00
73516;BME280;61763;51.416;5.442;2022-11-23T08:32:56;99705.66;;;6.22;100.00
73516;BME280;61763;51.416;5.442;2022-11-23T08:35:22;99715.06;;;6.31;100.00
73516;BME280;61763;51.416;5.442;2022-11-23T08:37:48;99711.34;;;6.34;100.00
73516;BME280;61763;51.416;5.442;2022-11-23T08:40:14;99705.84;;;6.37;100.00
73516;BME280;61763;51.416;5.442;2022-11-23T08:42:39;99714.81;;;6.36;100.00
73516;BME280;61763;51.416;5.442;2022-11-23T08:45:05;99704.50;;;6.45;100.00
73516;BME280;61763;51.416;5.442;2022-11-23T08:47:31;99708.78;;;6.49;100.00
73516;BME280;61763;51.416;5.442;2022-11-23T08:49:58;99719.84;;;6.59;100.00
73516;BME280;61763;51.416;5.442;2022-11-23T08:52:23;99718.38;;;6.54;100.00
73516;BME280;61763;51.416;5.442;2022-11-23T08:54:48;99719.56;;;6.65;100.00
73516;BME280;61763;51.416;5.442;2022-11-23T08:57:14;99715.91;;;6.66;100.00
73516;BME280;61763;51.416;5.442;2022-11-23T08:59:39;99713.38;;;6.81;100.00
73516;BME280;61763;51.416;5.442;2022-11-23T09:02:05;99712.97;;;6.89;100.00
73516;BME280;61763;51.416;5.442;2022-11-23T09:04:30;99710.53;;;6.84;100.00
73516;BME280;61763;51.416;5.442;2022-11-23T09:06:56;99713.31;;;6.82;100.00
73516;BME280;61763;51.416;5.442;2022-11-23T09:09:21;99714.16;;;6.83;100.00
73516;BME280;61763;51.416;5.442;2022-11-23T09:11:47;99706.84;;;6.87;100.00
73516;BME280;61763;51.416;5.442;2022-11-23T09:14:14;99700.19;;;6.94;100.00
73516;BME280;61763;51.416;5.442;2022-11-23T09:16:40;99700.72;;;7.00;99.67
73516;BME280;61763;51.416;5.442;2022-11-23T09:19:05;99698.03;;;7.00;99.61
73516;BME280;61763;51.416;5.442;2022-11-23T09:21:32;99700.97;;;6.96;99.20
73516;BME280;61763;51.416;5.442;2022-11-23T09:24:00;99698.91;;;7.01;98.45
73516;BME280;61763;51.416;5.442;2022-11-23T09:26:25;99698.03;;;7.00;98.31
73516;BME280;61763;51.416;5.442;2022-11-23T09:28:51;99697.78;;;7.05;98.40
73516;BME280;61763;51.416;5.442;2022-11-23T09:31:16;99686.53;;;6.98;98.63
73516;BME280;61763;51.416;5.442;2022-11-23T09:33:42;99688.22;;;7.17;97.27
73516;BME280;61763;51.416;5.442;2022-11-23T09:36:07;99673.59;;;7.07;97.59
73516;BME280;61763;51.416;5.442;2022-11-23T09:38:33;99685.09;;;7.09;97.63
73516;BME280;61763;51.416;5.442;2022-11-23T09:46:29;99660.06;;;7.24;96.29
73516;BME280;61763;51.416;5.442;2022-11-23T09:49:11;99664.59;;;7.24;95.94
73516;BME280;61763;51.416;5.442;2022-11-23T09:51:39;99644.50;;;7.15;97.34
73516;BME280;61763;51.416;5.442;2022-11-23T09:56:40;99647.28;;;7.29;96.61
73516;BME280;61763;51.416;5.442;2022-11-23T10:02:02;99638.53;;;7.42;95.88
73516;BME280;61763;51.416;5.442;2022-11-23T10:04:36;99640.84;;;7.48;95.41
73516;BME280;61763;51.416;5.442;2022-11-23T10:11:20;99629.50;;;7.75;93.75
73516;BME280;61763;51.416;5.442;2022-11-23T10:13:33;99629.59;;;8.03;92.34
73516;BME280;61763;51.416;5.442;2022-11-23T10:18:57;99622.25;;;8.07;91.84
73516;BME280;61763;51.416;5.442;2022-11-23T10:21:52;99628.22;;;7.96;93.24
73516;BME280;61763;51.416;5.442;2022-11-23T10:24:22;99629.53;;;7.89;93.71
73516;BME280;61763;51.416;5.442;2022-11-23T10:26:50;99626.72;;;7.76;94.73
73516;BME280;61763;51.416;5.442;2022-11-23T10:29:31;99618.47;;;8.10;92.92
73516;BME280;61763;51.416;5.442;2022-11-23T10:31:59;99615.41;;;8.01;92.67
73516;BME280;61763;51.416;5.442;2022-11-23T10:37:12;99609.66;;;8.07;92.55
73516;BME280;61763;51.416;5.442;2022-11-23T10:39:38;99623.63;;;8.29;90.84
73516;BME280;61763;51.416;5.442;2022-11-23T10:42:17;99612.47;;;8.20;91.24
73516;BME280;61763;51.416;5.442;2022-11-23T10:44:45;99605.50;;;8.32;90.48
73516;BME280;61763;51.416;5.442;2022-11-23T10:47:37;99610.97;;;8.31;91.68
73516;BME280;61763;51.416;5.442;2022-11-23T10:50:19;99604.56;;;8.33;91.54
73516;BME280;61763;51.416;5.442;2022-11-23T10:53:00;99607.59;;;8.72;92.20
73516;BME280;61763;51.416;5.442;2022-11-23T10:55:56;99601.44;;;8.99;87.54
73516;BME280;61763;51.416;5.442;2022-11-23T10:58:40;99596.50;;;9.05;86.80
73516;BME280;61763;51.416;5.442;2022-11-23T11:03:37;99585.78;;;8.76;87.88
73516;BME280;61763;51.416;5.442;2022-11-23T11:06:03;99576.47;;;8.82;88.34
73516;BME280;61763;51.416;5.442;2022-11-23T11:08:31;99574.72;;;8.96;87.68
73516;BME280;61763;51.416;5.442;2022-11-23T11:11:05;99577.97;;;9.01;87.85
73516;BME280;61763;51.416;5.442;2022-11-23T11:13:47;99584.03;;;9.04;85.47
73516;BME280;61763;51.416;5.442;2022-11-23T11:16:24;99583.81;;;9.07;86.26
73516;BME280;61763;51.416;5.442;2022-11-23T11:18:50;99579.06;;;9.25;85.56
73516;BME280;61763;51.416;5.442;2022-11-23T11:21:40;99578.38;;;9.36;83.33
73516;BME280;61763;51.416;5.442;2022-11-23T11:24:12;99578.09;;;9.41;83.16
73516;BME280;61763;51.416;5.442;2022-11-23T11:26:47;99566.44;;;9.40;84.16
73516;BME280;61763;51.416;5.442;2022-11-23T11:29:31;99556.66;;;9.52;83.75
73516;BME280;61763;51.416;5.442;2022-11-23T11:37:36;99544.69;;;9.71;81.02
73516;BME280;61763;51.416;5.442;2022-11-23T11:42:54;99525.16;;;9.67;81.84
73516;BME280;61763;51.416;5.442;2022-11-23T11:45:27;99522.81;;;9.75;82.08
73516;BME280;61763;51.416;5.442;2022-11-23T11:50:23;99507.28;;;9.66;82.07
73516;BME280;61763;51.416;5.442;2022-11-23T11:52:54;99509.03;;;9.80;80.30
73516;BME280;61763;51.416;5.442;2022-11-23T11:55:24;99506.84;;;9.72;81.77
73516;BME280;61763;51.416;5.442;2022-11-23T11:58:04;99496.94;;;9.73;80.54
73516;BME280;61763;51.416;5.442;2022-11-23T12:00:36;99502.34;;;9.86;80.91
73516;BME280;61763;51.416;5.442;2022-11-23T12:03:33;99499.19;;;9.79;80.64
73516;BME280;61763;51.416;5.442;2022-11-23T12:06:07;99508.81;;;9.83;80.25
73516;BME280;61763;51.416;5.442;2022-11-23T12:08:58;99499.75;;;9.84;80.04
73516;BME280;61763;51.416;5.442;2022-11-23T12:11:27;99499.44;;;9.89;79.80
73516;BME280;61763;51.416;5.442;2022-11-23T12:13:59;99490.41;;;9.90;79.55
73516;BME280;61763;51.416;5.442;2022-11-23T12:43:00;99466.00;;;9.65;78.99
73516;BME280;61763;51.416;5.442;2022-11-23T12:51:20;99464.63;;;9.86;77.70
73516;BME280;61763;51.416;5.442;2022-11-23T12:56:48;99453.63;;;9.89;76.44
73516;BME280;61763;51.416;5.442;2022-11-23T12:59:16;99454.81;;;9.97;76.69
73516;BME280;61763;51.416;5.442;2022-11-23T13:01:56;99451.69;;;10.04;76.72
73516;BME280;61763;51.416;5.442;2022-11-23T13:21:17;99458.81;;;9.92;77.91
73516;BME280;61763;51.416;5.442;2022-11-23T13:23:48;99466.56;;;10.09;76.84
73516;BME280;61763;51.416;5.442;2022-11-23T13:26:17;99459.03;;;10.02;76.98
73516;BME280;61763;51.416;5.442;2022-11-23T13:28:47;99466.91;;;10.05;76.81
73516;BME280;61763;51.416;5.442;2022-11-23T13:34:01;99472.72;;;10.11;76.67
73516;BME280;61763;51.416;5.442;2022-11-23T13:36:40;99487.91;;;9.99;77.09
73516;BME280;61763;51.416;5.442;2022-11-23T13:40:19;99489.97;;;10.09;76.43
73516;BME280;61763;51.416;5.442;2022-11-23T13:42:13;99492.44;;;9.99;78.38
73516;BME280;61763;51.416;5.442;2022-11-23T13:44:38;99502.81;;;9.92;78.29
73516;BME280;61763;51.416;5.442;2022-11-23T13:49:44;99504.47;;;9.68;86.21
73516;BME280;61763;51.416;5.442;2022-11-23T13:57:37;99531.69;;;8.67;97.32
73516;BME280;61763;51.416;5.442;2022-11-23T14:08:39;99534.09;;;7.98;100.00
73516;BME280;61763;51.416;5.442;2022-11-23T14:11:18;99538.63;;;7.97;100.00
73516;BME280;61763;51.416;5.442;2022-11-23T14:13:52;99547.06;;;7.91;100.00
73516;BME280;61763;51.416;5.442;2022-11-23T14:16:35;99553.09;;;7.80;100.00
73516;BME280;61763;51.416;5.442;2022-11-23T14:22:36;99557.44;;;7.67;100.00
73516;BME280;61763;51.416;5.442;2022-11-23T14:41:42;99586.59;;;7.43;100.00
73516;BME280;61763;51.416;5.442;2022-11-23T14:44:12;99594.00;;;7.37;100.00
73516;BME280;61763;51.416;5.442;2022-11-23T14:47:04;99594.63;;;7.43;100.00
73516;BME280;61763;51.416;5.442;2022-11-23T14:49:30;99593.41;;;7.48;100.00
73516;BME280;61763;51.416;5.442;2022-11-23T14:51:56;99602.97;;;7.38;100.00
73516;BME280;61763;51.416;5.442;2022-11-23T14:54:23;99604.00;;;7.35;100.00
73516;BME280;61763;51.416;5.442;2022-11-23T14:56:51;99614.72;;;7.19;100.00
73516;BME280;61763;51.416;5.442;2022-11-23T15:02:00;99615.75;;;7.33;100.00
73516;BME280;61763;51.416;5.442;2022-11-23T15:04:31;99617.41;;;7.35;100.00
73516;BME280;61763;51.416;5.442;2022-11-23T15:07:19;99623.22;;;7.28;100.00
73516;BME280;61763;51.416;5.442;2022-11-23T15:10:04;99631.63;;;7.22;100.00
73516;BME280;61763;51.416;5.442;2022-11-23T15:12:43;99632.09;;;7.12;100.00
73516;BME280;61763;51.416;5.442;2022-11-23T15:15:21;99640.97;;;7.14;100.00
73516;BME280;61763;51.416;5.442;2022-11-23T15:20:21;99637.75;;;7.24;100.00
73516;BME280;61763;51.416;5.442;2022-11-23T15:22:49;99640.59;;;7.21;100.00
73516;BME280;61763;51.416;5.442;2022-11-23T15:25:15;99625.44;;;7.19;100.00